Time;durP1;ratioP1;P1;durP2;ratioP2;P2;SDS_P1;SDS_P2;PMS_P1;PMS_P2;Temp;Humidity;BMP_temperature;BMP_pressure;BME280_temperature;BME280_humidity;BME280_pressure;Samples;Min_cycle;Max_cycle;Signal;HPM_P1;HPM_P2
2023/03/04 00:00:20;;;;;;;3.00;2.80;;;1.30;97.30;;;;;;5013866;28;20204;-83
2023/03/04 00:02:45;;;;;;;1.90;1.80;;;1.30;97.30;;;;;;5017074;28;20447;-82
2023/03/04 00:05:11;;;;;;;5.70;3.33;;;1.30;97.30;;;;;;5008909;28;20177;-82
2023/03/04 00:07:36;;;;;;;4.00;2.20;;;1.30;97.30;;;;;;5005737;28;20193;-82
2023/03/04 00:10:03;;;;;;;2.23;2.10;;;1.30;97.30;;;;;;5009652;28;20177;-82
2023/03/04 00:12:28;;;;;;;6.00;3.00;;;1.30;97.30;;;;;;5010953;28;20205;-82
2023/03/04 00:14:54;;;;;;;4.20;3.93;;;1.30;97.30;;;;;;5019158;28;20470;-81
2023/03/04 00:17:20;;;;;;;4.20;3.93;;;1.30;97.30;;;;;;5021214;28;20284;-83
2023/03/04 00:19:45;;;;;;;2.23;2.03;;;1.40;97.30;;;;;;5009839;28;20205;-82
2023/03/04 00:22:11;;;;;;;9.80;3.80;;;1.30;97.30;;;;;;5000218;28;20182;-82
2023/03/04 00:24:36;;;;;;;5.40;3.50;;;1.40;97.30;;;;;;5008587;28;20204;-82
2023/03/04 00:27:02;;;;;;;2.60;2.40;;;1.30;97.30;;;;;;5011267;28;20185;-81
2023/03/04 00:29:28;;;;;;;3.10;2.90;;;1.30;97.30;;;;;;5019298;28;20236;-82
2023/03/04 00:31:53;;;;;;;2.90;1.97;;;1.30;97.30;;;;;;4999548;28;20193;-82
2023/03/04 00:34:19;;;;;;;3.67;3.50;;;1.30;97.30;;;;;;4999246;28;20237;-82
2023/03/04 00:36:44;;;;;;;6.63;3.23;;;1.30;97.30;;;;;;5012797;28;20660;-83
2023/03/04 00:39:11;;;;;;;3.93;3.70;;;1.30;97.30;;;;;;5012147;28;20239;-83
2023/03/04 00:41:37;;;;;;;3.93;2.10;;;1.30;97.30;;;;;;5008087;28;20618;-81
2023/03/04 00:44:03;;;;;;;3.90;3.67;;;1.30;97.30;;;;;;5010952;28;20479;-81
2023/03/04 00:46:29;;;;;;;6.00;3.87;;;1.30;97.30;;;;;;5009071;28;20177;-82
2023/03/04 00:48:54;;;;;;;2.60;2.40;;;1.30;97.30;;;;;;5004633;28;20427;-82
2023/03/04 00:51:20;;;;;;;4.87;4.57;;;1.30;97.30;;;;;;5003488;28;20177;-82
2023/03/04 00:53:46;;;;;;;6.07;3.13;;;1.20;97.30;;;;;;5007453;28;20201;-82
2023/03/04 00:56:12;;;;;;;3.90;1.70;;;1.30;97.30;;;;;;5018063;28;20205;-81
2023/03/04 00:58:39;;;;;;;7.40;3.43;;;1.30;97.30;;;;;;5011031;28;20427;-82
2023/03/04 01:01:06;;;;;;;2.27;2.07;;;1.30;97.30;;;;;;5010181;28;20271;-82
2023/03/04 01:03:32;;;;;;;16.63;3.80;;;1.30;97.30;;;;;;5005421;28;20489;-83
2023/03/04 01:05:59;;;;;;;12.63;4.90;;;1.30;97.30;;;;;;5017404;28;20417;-81
2023/03/04 01:08:25;;;;;;;6.03;3.40;;;1.30;97.30;;;;;;5016841;28;20210;-82
2023/03/04 01:10:51;;;;;;;10.13;4.83;;;1.30;97.30;;;;;;5005199;28;20417;-83
2023/03/04 01:13:17;;;;;;;10.77;5.27;;;1.30;97.30;;;;;;5016054;28;20494;-81
2023/03/04 01:15:42;;;;;;;5.63;3.30;;;1.30;97.30;;;;;;5014251;28;20473;-83
2023/03/04 01:18:08;;;;;;;3.77;3.57;;;1.30;97.30;;;;;;5015786;28;20181;-81
2023/03/04 01:20:34;;;;;;;3.67;3.40;;;1.30;97.30;;;;;;5011207;28;20205;-82
2023/03/04 01:22:59;;;;;;;4.83;4.27;;;1.30;97.30;;;;;;5016267;28;20229;-82
2023/03/04 01:25:25;;;;;;;4.40;3.03;;;1.30;97.30;;;;;;5014351;28;20184;-83
2023/03/04 01:27:51;;;;;;;3.83;3.60;;;1.30;97.30;;;;;;5004095;28;20205;-81
2023/03/04 01:30:17;;;;;;;5.63;2.47;;;1.30;97.30;;;;;;5014738;28;20177;-82
2023/03/04 01:32:42;;;;;;;4.87;2.80;;;1.30;97.30;;;;;;5007679;28;20580;-82
2023/03/04 01:35:09;;;;;;;5.33;3.37;;;1.30;97.30;;;;;;5015824;28;20250;-82
2023/03/04 01:37:34;;;;;;;5.70;3.43;;;1.30;97.30;;;;;;5011339;28;20193;-82
2023/03/04 01:40:00;;;;;;;3.40;2.50;;;1.30;97.30;;;;;;5004590;28;20460;-82
2023/03/04 01:42:29;;;;;;;7.10;2.10;;;1.30;97.30;;;;;;5005658;28;20216;-82
2023/03/04 01:44:54;;;;;;;8.10;3.53;;;1.30;97.30;;;;;;5012436;28;20193;-83
2023/03/04 01:47:30;;;;;;;3.97;2.60;;;1.30;97.30;;;;;;5015772;28;20424;-82
2023/03/04 01:49:57;;;;;;;3.57;3.13;;;1.20;97.30;;;;;;5010278;28;20204;-82
2023/03/04 01:52:23;;;;;;;21.33;5.27;;;1.20;97.30;;;;;;5002453;28;20469;-83
2023/03/04 01:54:49;;;;;;;2.70;2.50;;;1.20;97.30;;;;;;5015730;28;20451;-81
2023/03/04 01:57:16;;;;;;;2.90;2.70;;;1.20;97.30;;;;;;5009676;28;20416;-82
2023/03/04 01:59:42;;;;;;;3.53;3.33;;;1.20;97.30;;;;;;5002001;28;20199;-82
2023/03/04 02:02:07;;;;;;;9.23;5.37;;;1.20;97.30;;;;;;4998992;28;20420;-82
2023/03/04 02:04:33;;;;;;;2.50;2.30;;;1.20;97.30;;;;;;5014414;28;20185;-81
2023/03/04 02:07:00;;;;;;;5.03;4.73;;;1.20;97.30;;;;;;5004890;28;20188;-82
2023/03/04 02:09:28;;;;;;;2.97;2.63;;;1.30;97.30;;;;;;5004815;28;20184;-82
2023/03/04 02:11:54;;;;;;;6.20;1.90;;;1.30;97.30;;;;;;5005949;28;20943;-82
2023/03/04 02:14:20;;;;;;;13.77;3.00;;;1.30;97.30;;;;;;5009534;28;20455;-81
2023/03/04 02:16:47;;;;;;;3.90;3.20;;;1.30;97.30;;;;;;5016034;28;20428;-79
2023/03/04 02:19:26;;;;;;;3.17;1.97;;;1.30;97.30;;;;;;5014622;28;20550;-82
2023/03/04 02:21:52;;;;;;;3.73;2.67;;;1.40;97.30;;;;;;5004908;28;20421;-82
2023/03/04 02:24:28;;;;;;;1.77;1.63;;;1.40;97.30;;;;;;5010480;28;20436;-81
2023/03/04 02:26:53;;;;;;;2.30;1.93;;;1.40;97.30;;;;;;5004088;28;20644;-82
2023/03/04 02:29:19;;;;;;;2.80;2.30;;;1.40;97.30;;;;;;5002069;28;20475;-81
2023/03/04 02:31:50;;;;;;;13.50;4.00;;;1.40;97.30;;;;;;5008953;28;20715;-82
2023/03/04 02:34:32;;;;;;;2.50;2.33;;;1.40;97.30;;;;;;5021443;28;20255;-83
2023/03/04 02:36:58;;;;;;;2.57;1.93;;;1.40;97.30;;;;;;5002316;28;20793;-82
2023/03/04 02:39:40;;;;;;;10.20;5.00;;;1.40;97.30;;;;;;5028126;28;20470;-82
2023/03/04 02:42:07;;;;;;;3.83;3.67;;;1.50;97.30;;;;;;5009332;28;20407;-82
2023/03/04 02:44:38;;;;;;;1.73;1.63;;;1.50;97.30;;;;;;5018006;28;20426;-81
2023/03/04 02:47:06;;;;;;;6.87;4.23;;;1.50;97.30;;;;;;5007560;28;20451;-82
2023/03/04 02:49:34;;;;;;;30.73;4.63;;;1.50;97.30;;;;;;5011045;28;20514;-81
2023/03/04 02:52:13;;;;;;;3.80;3.10;;;1.60;97.30;;;;;;5027321;28;20415;-82
2023/03/04 02:54:39;;;;;;;3.37;3.00;;;1.60;97.30;;;;;;5021901;28;20427;-81
2023/03/04 02:57:07;;;;;;;6.33;3.00;;;1.60;97.30;;;;;;5016879;28;20480;-82
2023/03/04 02:59:34;;;;;;;2.13;1.97;;;1.60;97.30;;;;;;5009458;28;20459;-83
2023/03/04 03:02:00;;;;;;;4.60;2.17;;;1.60;97.30;;;;;;5033967;28;20443;-82
2023/03/04 03:04:26;;;;;;;3.07;2.87;;;1.60;97.30;;;;;;5034501;28;20439;-79
2023/03/04 03:06:52;;;;;;;3.37;3.17;;;1.60;97.30;;;;;;5028080;28;20694;-82
2023/03/04 03:09:18;;;;;;;2.93;2.23;;;1.70;97.30;;;;;;5017831;28;20539;-82
2023/03/04 03:11:43;;;;;;;7.03;2.33;;;1.70;97.30;;;;;;5015827;28;20183;-81
2023/03/04 03:14:09;;;;;;;2.80;2.60;;;1.70;97.30;;;;;;5009689;28;20440;-81
2023/03/04 03:16:34;;;;;;;2.47;2.27;;;1.70;97.30;;;;;;5007238;28;20176;-81
2023/03/04 03:19:00;;;;;;;3.27;2.60;;;1.70;97.30;;;;;;5015401;28;20195;-81
2023/03/04 03:21:25;;;;;;;3.70;3.13;;;1.80;97.30;;;;;;5016532;28;20181;-81
2023/03/04 03:23:51;;;;;;;6.37;5.20;;;1.80;97.30;;;;;;5003696;28;20280;-82
2023/03/04 03:26:17;;;;;;;4.53;2.30;;;1.80;97.30;;;;;;5014853;28;20177;-81
2023/03/04 03:28:43;;;;;;;5.80;3.13;;;1.80;97.30;;;;;;5011073;28;20655;-82
2023/03/04 03:31:08;;;;;;;6.40;2.40;;;1.90;97.30;;;;;;5034092;28;20455;-81
2023/03/04 03:33:34;;;;;;;7.00;3.90;;;1.90;97.30;;;;;;5010630;28;20232;-81
2023/03/04 03:35:59;;;;;;;2.97;2.77;;;1.90;97.30;;;;;;5016206;28;20197;-81
2023/03/04 03:38:25;;;;;;;6.63;2.77;;;1.90;97.30;;;;;;5015109;28;20275;-81
2023/03/04 03:40:50;;;;;;;7.67;5.97;;;2.00;97.30;;;;;;5018360;28;20218;-81
2023/03/04 03:43:16;;;;;;;7.43;4.33;;;2.00;97.30;;;;;;5025551;28;20220;-81
2023/03/04 03:45:42;;;;;;;4.90;4.60;;;2.00;97.30;;;;;;5035571;28;20276;-81
2023/03/04 03:48:07;;;;;;;11.50;3.20;;;2.00;97.30;;;;;;5038949;28;20255;-81
2023/03/04 03:50:33;;;;;;;4.30;3.10;;;2.00;97.30;;;;;;5019464;28;20184;-81
2023/03/04 03:52:58;;;;;;;2.97;2.77;;;2.00;97.30;;;;;;5037230;28;20288;-81
2023/03/04 03:55:24;;;;;;;3.40;3.20;;;2.00;97.30;;;;;;5043739;28;20279;-80
2023/03/04 03:57:50;;;;;;;1.73;1.63;;;2.00;97.30;;;;;;5006350;28;20184;-81
2023/03/04 04:00:15;;;;;;;11.90;3.10;;;2.00;97.30;;;;;;5024805;28;20208;-81
2023/03/04 04:02:41;;;;;;;7.40;2.83;;;2.00;97.30;;;;;;5025249;28;20208;-81
2023/03/04 04:05:08;;;;;;;4.37;4.07;;;2.00;97.30;;;;;;5027302;28;20415;-81
2023/03/04 04:07:34;;;;;;;2.40;2.20;;;2.00;97.30;;;;;;5019149;28;20279;-81
2023/03/04 04:09:59;;;;;;;3.03;2.77;;;2.00;97.30;;;;;;5017732;28;20422;-81
2023/03/04 04:12:25;;;;;;;19.90;3.70;;;2.10;97.30;;;;;;5013220;28;20444;-81
2023/03/04 04:14:50;;;;;;;2.90;2.40;;;2.10;97.30;;;;;;5019018;28;20187;-81
2023/03/04 04:17:16;;;;;;;1.70;1.60;;;2.10;97.30;;;;;;5017963;28;20184;-80
2023/03/04 04:19:41;;;;;;;11.53;4.33;;;2.10;97.30;;;;;;5036797;28;20683;-82
2023/03/04 04:22:14;;;;;;;1.93;1.83;;;2.10;97.30;;;;;;5023851;28;20191;-81
2023/03/04 04:24:39;;;;;;;2.13;1.97;;;2.20;97.30;;;;;;5025686;28;20552;-81
2023/03/04 04:27:04;;;;;;;2.70;2.50;;;2.20;97.30;;;;;;5011984;28;20491;-82
2023/03/04 04:29:30;;;;;;;4.30;2.70;;;2.20;97.30;;;;;;5025894;28;20184;-81
2023/03/04 04:31:56;;;;;;;10.97;3.70;;;2.20;97.30;;;;;;5021334;28;20212;-82
2023/03/04 04:34:21;;;;;;;7.80;2.23;;;2.20;97.30;;;;;;5021340;28;20484;-78
2023/03/04 04:36:47;;;;;;;2.03;1.90;;;2.20;97.30;;;;;;5010654;28;20230;-81
2023/03/04 04:39:12;;;;;;;6.10;4.47;;;2.20;97.30;;;;;;5025239;28;20204;-82
2023/03/04 04:41:42;;;;;;;14.70;1.90;;;2.20;97.30;;;;;;5015264;28;20174;-81
2023/03/04 04:44:08;;;;;;;3.10;2.90;;;2.20;97.30;;;;;;5037279;28;20215;-81
2023/03/04 04:46:34;;;;;;;2.07;1.93;;;2.20;97.30;;;;;;5013877;28;20517;-81
2023/03/04 04:49:00;;;;;;;2.50;2.23;;;2.20;97.30;;;;;;5018682;28;20419;-81
2023/03/04 04:51:26;;;;;;;6.30;4.00;;;2.30;97.30;;;;;;5023790;28;20177;-79
2023/03/04 04:53:51;;;;;;;5.33;2.50;;;2.30;97.30;;;;;;5032982;28;20470;-81
2023/03/04 04:56:20;;;;;;;8.80;5.50;;;2.30;97.30;;;;;;5016494;28;20681;-81
2023/03/04 04:58:46;;;;;;;2.07;1.83;;;2.30;97.30;;;;;;5015177;28;20519;-81
2023/03/04 05:01:12;;;;;;;4.13;3.17;;;2.30;97.30;;;;;;5012509;28;20463;-81
2023/03/04 05:03:39;;;;;;;7.43;3.30;;;2.30;97.30;;;;;;5013233;28;20428;-81
2023/03/04 05:06:07;;;;;;;4.00;2.30;;;2.30;97.30;;;;;;5010345;28;20421;-81
2023/03/04 05:08:33;;;;;;;4.03;3.33;;;2.30;97.30;;;;;;5006568;28;20476;-81
2023/03/04 05:10:59;;;;;;;1.70;1.63;;;2.30;97.30;;;;;;5003365;28;20840;-81
2023/03/04 05:13:25;;;;;;;2.70;2.50;;;2.30;97.30;;;;;;5028377;28;20435;-82
2023/03/04 05:15:55;;;;;;;7.37;3.80;;;2.30;97.30;;;;;;5011189;28;20493;-81
2023/03/04 05:18:22;;;;;;;4.73;3.70;;;2.40;97.30;;;;;;5010918;28;20320;-81
2023/03/04 05:20:55;;;;;;;4.20;2.47;;;2.40;97.30;;;;;;5010569;28;20455;-81
2023/03/04 05:23:21;;;;;;;3.73;3.10;;;2.40;97.30;;;;;;5013207;28;20443;-82
2023/03/04 05:25:47;;;;;;;2.60;2.40;;;2.40;97.30;;;;;;5011263;28;20415;-81
2023/03/04 05:28:13;;;;;;;6.50;4.47;;;2.40;97.30;;;;;;5014944;28;20172;-81
2023/03/04 05:30:39;;;;;;;2.60;2.17;;;2.40;97.30;;;;;;5014887;28;20185;-81
2023/03/04 05:33:07;;;;;;;4.10;2.60;;;2.40;97.30;;;;;;5011388;28;20477;-81
2023/03/04 05:35:37;;;;;;;2.90;2.63;;;2.40;97.30;;;;;;5010329;28;20427;-82
2023/03/04 05:38:04;;;;;;;6.63;4.07;;;2.40;97.30;;;;;;5004374;28;20574;-81
2023/03/04 05:40:30;;;;;;;3.83;3.63;;;2.40;97.30;;;;;;5023705;28;20474;-81
2023/03/04 05:42:55;;;;;;;4.10;2.40;;;2.40;97.30;;;;;;5019337;28;20436;-81
2023/03/04 05:45:22;;;;;;;2.30;2.10;;;2.40;97.30;;;;;;5023764;28;20187;-81
2023/03/04 05:47:47;;;;;;;27.83;2.63;;;2.40;97.30;;;;;;5019409;28;20180;-81
2023/03/04 05:50:13;;;;;;;3.13;2.93;;;2.40;97.30;;;;;;5008161;28;20420;-81
2023/03/04 05:52:38;;;;;;;74.63;5.27;;;2.40;97.30;;;;;;5010540;28;20246;-79
2023/03/04 05:55:04;;;;;;;3.43;3.23;;;2.40;97.30;;;;;;5017378;28;20259;-81
2023/03/04 05:57:30;;;;;;;5.67;4.80;;;2.40;97.30;;;;;;5017360;28;20188;-81
2023/03/04 05:59:55;;;;;;;3.60;3.40;;;2.50;97.30;;;;;;5007839;28;20486;-81
2023/03/04 06:02:21;;;;;;;6.33;3.23;;;2.50;97.30;;;;;;5005348;28;20231;-81
2023/03/04 06:04:46;;;;;;;7.03;6.07;;;2.50;97.30;;;;;;5026832;28;20186;-81
2023/03/04 06:07:12;;;;;;;9.03;3.93;;;2.50;97.30;;;;;;5011549;28;20694;-81
2023/03/04 06:09:37;;;;;;;4.37;4.03;;;2.50;97.30;;;;;;5012767;28;20781;-81
2023/03/04 06:12:03;;;;;;;5.93;3.23;;;2.50;97.30;;;;;;5019096;28;20212;-81
2023/03/04 06:14:28;;;;;;;1.37;1.27;;;2.50;97.30;;;;;;5036752;28;20200;-81
2023/03/04 06:16:54;;;;;;;9.47;4.33;;;2.50;97.30;;;;;;5014136;28;20193;-82
2023/03/04 06:19:19;;;;;;;3.07;2.87;;;2.60;97.30;;;;;;5004574;28;20556;-81
2023/03/04 06:21:45;;;;;;;2.33;2.20;;;2.60;97.30;;;;;;5010886;28;20310;-81
2023/03/04 06:24:11;;;;;;;5.40;2.23;;;2.60;97.30;;;;;;5011045;28;20211;-81
2023/03/04 06:26:36;;;;;;;5.67;3.17;;;2.60;97.30;;;;;;5008645;28;20664;-81
2023/03/04 06:29:03;;;;;;;2.40;2.20;;;2.60;97.30;;;;;;5007323;28;20169;-81
2023/03/04 06:31:28;;;;;;;5.33;2.87;;;2.60;97.30;;;;;;5011031;28;20188;-81
2023/03/04 06:33:54;;;;;;;9.40;4.93;;;2.60;97.30;;;;;;5010558;28;20467;-81
2023/03/04 06:36:19;;;;;;;4.47;4.23;;;2.60;97.30;;;;;;5013960;28;20901;-82
2023/03/04 06:38:45;;;;;;;9.90;3.70;;;2.60;97.30;;;;;;5009189;28;20180;-80
2023/03/04 06:41:11;;;;;;;3.00;2.53;;;2.60;97.30;;;;;;5012170;28;20247;-81
2023/03/04 06:43:37;;;;;;;13.60;3.33;;;2.70;97.30;;;;;;5012333;28;20292;-81
2023/03/04 06:46:03;;;;;;;3.37;3.17;;;2.70;97.30;;;;;;5019356;28;20510;-81
2023/03/04 06:48:29;;;;;;;2.23;2.07;;;2.70;97.30;;;;;;5011941;28;20267;-81
2023/03/04 06:50:55;;;;;;;2.70;2.40;;;2.70;97.30;;;;;;5008297;28;20466;-81
2023/03/04 06:53:20;;;;;;;5.77;2.70;;;2.70;97.30;;;;;;5003468;28;20208;-80
2023/03/04 06:55:47;;;;;;;5.93;4.53;;;2.80;97.30;;;;;;5006835;28;20435;-80
2023/03/04 06:58:12;;;;;;;4.03;3.40;;;2.80;97.30;;;;;;5008061;28;20180;-81
2023/03/04 07:00:38;;;;;;;2.67;2.47;;;2.80;97.30;;;;;;5008192;28;20512;-81
2023/03/04 07:03:03;;;;;;;1.10;1.00;;;2.80;97.30;;;;;;5007176;28;20730;-81
2023/03/04 07:05:29;;;;;;;3.10;2.40;;;2.80;97.30;;;;;;5021513;28;20262;-81
2023/03/04 07:07:54;;;;;;;1.87;1.77;;;2.90;97.30;;;;;;5004354;28;20181;-81
2023/03/04 07:10:20;;;;;;;3.17;1.60;;;2.90;97.30;;;;;;5015848;28;20189;-81
2023/03/04 07:12:46;;;;;;;4.43;1.87;;;2.90;97.30;;;;;;5014753;28;20204;-81
2023/03/04 07:15:11;;;;;;;6.47;3.97;;;2.90;97.30;;;;;;5033412;28;20180;-81
2023/03/04 07:17:37;;;;;;;6.97;3.97;;;3.00;97.30;;;;;;5009700;28;20435;-80
2023/03/04 07:20:03;;;;;;;3.23;2.80;;;3.00;97.30;;;;;;5005740;28;20825;-81
2023/03/04 07:22:28;;;;;;;7.13;2.23;;;3.00;97.30;;;;;;5012449;28;20844;-81
2023/03/04 07:24:54;;;;;;;4.43;3.03;;;3.00;97.30;;;;;;5008919;28;20174;-81
2023/03/04 07:27:19;;;;;;;3.40;2.50;;;3.00;97.30;;;;;;5015132;28;20869;-81
2023/03/04 07:29:45;;;;;;;4.40;2.97;;;3.10;97.30;;;;;;5023458;28;20212;-81
2023/03/04 07:32:10;;;;;;;4.67;3.73;;;3.10;97.30;;;;;;5029599;28;20227;-80
2023/03/04 07:34:36;;;;;;;3.13;1.30;;;3.10;97.30;;;;;;5024733;28;20198;-82
2023/03/04 07:37:03;;;;;;;7.63;3.03;;;3.10;97.30;;;;;;5023369;28;20212;-82
2023/03/04 07:39:28;;;;;;;1.70;1.60;;;3.10;97.30;;;;;;5009033;28;20531;-82
2023/03/04 07:41:54;;;;;;;2.73;2.10;;;3.10;97.30;;;;;;5032990;28;20242;-81
2023/03/04 07:44:20;;;;;;;1.60;1.50;;;3.10;97.30;;;;;;5012725;28;20204;-81
2023/03/04 07:46:45;;;;;;;9.93;5.03;;;3.10;97.30;;;;;;5005973;28;20267;-81
2023/03/04 07:49:12;;;;;;;2.33;2.03;;;3.10;97.30;;;;;;5008572;28;20454;-80
2023/03/04 07:51:38;;;;;;;2.03;1.90;;;3.10;97.30;;;;;;5029098;28;20180;-81
2023/03/04 07:54:04;;;;;;;4.00;2.33;;;3.10;97.30;;;;;;5009334;28;20436;-81
2023/03/04 07:56:32;;;;;;;10.63;1.70;;;3.20;97.30;;;;;;5000289;28;20176;-81
2023/03/04 07:58:57;;;;;;;1.60;1.50;;;3.20;97.30;;;;;;4996131;28;20303;-83
2023/03/04 08:01:29;;;;;;;3.20;3.00;;;3.20;97.30;;;;;;5028191;28;20518;-82
2023/03/04 08:03:54;;;;;;;4.43;3.30;;;3.20;97.30;;;;;;5004794;28;20203;-81
2023/03/04 08:06:20;;;;;;;2.07;1.93;;;3.20;97.30;;;;;;5010781;28;20427;-80
2023/03/04 08:08:47;;;;;;;3.47;3.27;;;3.30;97.30;;;;;;5019332;28;20268;-79
2023/03/04 08:11:19;;;;;;;2.80;2.60;;;3.30;97.30;;;;;;5023642;28;20427;-83
2023/03/04 08:13:44;;;;;;;3.07;2.37;;;3.40;97.30;;;;;;5036673;28;20443;-79
2023/03/04 08:16:18;;;;;;;7.30;1.67;;;3.40;97.30;;;;;;5013825;28;20769;-79
2023/03/04 08:18:45;;;;;;;1.53;1.37;;;3.40;97.30;;;;;;5036813;28;20215;-77
2023/03/04 08:21:11;;;;;;;1.60;1.50;;;3.40;97.30;;;;;;5013629;28;20478;-78
2023/03/04 08:23:38;;;;;;;1.80;1.53;;;3.50;97.30;;;;;;5036935;28;20434;-79
2023/03/04 08:26:19;;;;;;;1.90;1.80;;;3.60;97.30;;;;;;5029110;28;20431;-82
2023/03/04 08:28:45;;;;;;;3.10;1.57;;;3.60;97.30;;;;;;5020050;28;20442;-81
2023/03/04 08:31:16;;;;;;;4.20;1.83;;;3.70;97.30;;;;;;5005369;28;20515;-83
2023/03/04 08:33:41;;;;;;;1.50;1.40;;;3.70;97.30;;;;;;5011615;28;20231;-79
2023/03/04 08:36:08;;;;;;;2.03;1.23;;;3.80;97.30;;;;;;5006374;28;20434;-82
2023/03/04 08:38:34;;;;;;;2.70;2.50;;;3.80;97.30;;;;;;5007468;28;20605;-81
2023/03/04 08:41:00;;;;;;;1.57;1.47;;;3.80;97.30;;;;;;5019255;28;20463;-82
2023/03/04 08:43:26;;;;;;;2.40;2.20;;;3.80;97.30;;;;;;5020211;28;20435;-81
2023/03/04 08:45:53;;;;;;;4.07;2.10;;;3.90;97.30;;;;;;5018111;28;20845;-83
2023/03/04 08:48:19;;;;;;;2.27;1.80;;;3.90;97.30;;;;;;5008293;28;20879;-83
2023/03/04 08:50:46;;;;;;;2.17;2.00;;;3.90;97.30;;;;;;5017605;28;20435;-81
2023/03/04 08:53:12;;;;;;;1.60;1.50;;;3.90;97.30;;;;;;5025143;28;20521;-84
2023/03/04 08:55:39;;;;;;;1.47;1.37;;;3.90;97.30;;;;;;5016965;28;20422;-83
2023/03/04 08:58:05;;;;;;;1.30;1.20;;;4.00;97.30;;;;;;5007360;28;20426;-82
2023/03/04 09:00:32;;;;;;;1.07;0.97;;;4.00;97.30;;;;;;5002217;28;20464;-81
2023/03/04 09:02:57;;;;;;;1.23;1.13;;;4.10;97.30;;;;;;5005844;28;20293;-81
2023/03/04 09:05:23;;;;;;;2.80;1.53;;;4.10;97.30;;;;;;5004970;28;20521;-82
2023/03/04 09:07:48;;;;;;;1.33;1.30;;;4.10;97.30;;;;;;5014896;28;20169;-81
2023/03/04 09:10:14;;;;;;;2.03;1.90;;;4.20;97.30;;;;;;5012322;28;20189;-82
2023/03/04 09:12:40;;;;;;;1.00;0.90;;;4.20;97.30;;;;;;5007613;28;20208;-81
2023/03/04 09:15:06;;;;;;;1.10;1.00;;;4.20;97.30;;;;;;5002808;28;20627;-82
2023/03/04 09:17:32;;;;;;;1.37;1.27;;;4.30;97.30;;;;;;5013498;28;20192;-81
2023/03/04 09:19:57;;;;;;;1.10;1.00;;;4.30;97.30;;;;;;5011160;28;20554;-79
2023/03/04 09:22:23;;;;;;;1.30;1.20;;;4.30;97.30;;;;;;5005286;28;20208;-83
2023/03/04 09:24:49;;;;;;;1.93;1.60;;;4.40;97.30;;;;;;5005551;28;20658;-81
2023/03/04 09:27:14;;;;;;;4.33;1.77;;;4.40;97.30;;;;;;5005777;28;20187;-82
2023/03/04 09:29:41;;;;;;;9.60;3.23;;;4.40;97.30;;;;;;5011432;28;20247;-82
2023/03/04 09:32:06;;;;;;;1.97;1.87;;;4.50;97.30;;;;;;5019669;28;20230;-81
2023/03/04 09:34:32;;;;;;;1.40;1.30;;;4.50;97.30;;;;;;5011879;28;20482;-82
2023/03/04 09:36:57;;;;;;;1.87;1.60;;;4.60;97.30;;;;;;5011092;28;20188;-82
2023/03/04 09:39:23;;;;;;;1.20;1.10;;;4.60;97.30;;;;;;5006097;28;20197;-82
2023/03/04 09:41:54;;;;;;;3.07;2.40;;;4.70;97.30;;;;;;5026616;28;20720;-79
2023/03/04 09:44:31;;;;;;;3.50;3.07;;;4.70;97.30;;;;;;5017700;28;20201;-83
2023/03/04 09:47:01;;;;;;;1.20;0.97;;;4.70;97.30;;;;;;5012091;28;20411;-79
2023/03/04 09:49:27;;;;;;;1.07;0.97;;;4.80;97.30;;;;;;5019569;28;20423;-82
2023/03/04 09:52:07;;;;;;;2.20;1.57;;;4.80;97.30;;;;;;5009146;28;20419;-82
2023/03/04 09:54:49;;;;;;;1.10;1.00;;;4.90;97.30;;;;;;5005126;28;20422;-83
2023/03/04 09:57:44;;;;;;;3.57;2.73;;;4.90;97.30;;;;;;5019572;28;20425;-83
2023/03/04 10:00:20;;;;;;;1.73;1.63;;;4.90;97.30;;;;;;5030277;28;20465;-82
2023/03/04 10:03:09;;;;;;;1.60;1.50;;;4.90;97.30;;;;;;5032120;28;20438;-83
2023/03/04 10:06:06;;;;;;;2.93;1.63;;;4.90;97.30;;;;;;5010260;28;20413;-82
2023/03/04 10:08:43;;;;;;;1.00;0.90;;;4.90;97.30;;;;;;5027719;28;20427;-84
2023/03/04 10:11:27;;;;;;;1.30;1.20;;;4.90;97.30;;;;;;5013634;28;20415;-82
2023/03/04 10:14:10;;;;;;;0.97;0.87;;;4.90;97.30;;;;;;5008600;28;20454;-82
2023/03/04 10:16:43;;;;;;;1.67;1.57;;;5.00;97.30;;;;;;5007186;28;20431;-82
2023/03/04 10:19:27;;;;;;;1.20;1.10;;;5.10;97.30;;;;;;5012721;28;20416;-79
2023/03/04 10:21:53;;;;;;;1.80;1.73;;;5.10;97.30;;;;;;5015303;28;20416;-79
2023/03/04 10:24:23;;;;;;;2.27;2.07;;;5.10;97.30;;;;;;5008125;28;20573;-83
2023/03/04 10:26:53;;;;;;;1.80;1.70;;;5.20;97.30;;;;;;5010882;28;20172;-83
2023/03/04 10:29:21;;;;;;;5.40;2.70;;;5.20;97.30;;;;;;5035686;28;20422;-80
2023/03/04 10:31:48;;;;;;;1.00;0.90;;;5.20;97.30;;;;;;5012439;28;20929;-83
2023/03/04 10:34:15;;;;;;;1.10;1.00;;;5.20;97.30;;;;;;5007113;28;20483;-79
2023/03/04 10:36:54;;;;;;;2.30;1.83;;;5.20;97.30;;;;;;5019436;28;20561;-83
2023/03/04 10:39:32;;;;;;;1.47;1.37;;;5.30;97.30;;;;;;5012566;28;20415;-81
2023/03/04 10:41:59;;;;;;;1.53;1.43;;;5.30;97.30;;;;;;5015901;28;20416;-82
2023/03/04 10:44:26;;;;;;;1.10;1.00;;;5.40;97.30;;;;;;5003294;28;20447;-82
2023/03/04 10:46:54;;;;;;;1.07;1.03;;;5.40;97.30;;;;;;5009556;28;20470;-82
2023/03/04 10:49:20;;;;;;;1.47;1.37;;;5.40;97.30;;;;;;5012473;28;20419;-82
2023/03/04 10:51:50;;;;;;;5.60;1.63;;;5.50;97.30;;;;;;5012884;28;20930;-82
2023/03/04 10:54:27;;;;;;;1.23;1.13;;;5.50;97.30;;;;;;5012341;28;20454;-83
2023/03/04 10:57:18;;;;;;;2.33;1.80;;;5.50;97.30;;;;;;5007764;28;20420;-84
2023/03/04 10:59:59;;;;;;;1.40;1.30;;;5.60;97.30;;;;;;5008321;28;20638;-83
2023/03/04 11:02:31;;;;;;;1.77;1.67;;;5.70;97.30;;;;;;5013534;28;20442;-83
2023/03/04 11:05:08;;;;;;;1.63;1.23;;;5.80;97.30;;;;;;5008649;28;20431;-81
2023/03/04 11:07:40;;;;;;;1.33;1.00;;;5.80;97.30;;;;;;5012548;28;20418;-83
2023/03/04 11:10:16;;;;;;;1.40;1.30;;;5.90;97.30;;;;;;5002541;28;20447;-83
2023/03/04 11:13:10;;;;;;;1.27;1.17;;;6.00;97.30;;;;;;5008941;28;20453;-82
2023/03/04 11:15:56;;;;;;;1.30;1.27;;;6.10;97.30;;;;;;5006429;28;20462;-83
2023/03/04 11:18:42;;;;;;;4.33;1.73;;;6.10;97.30;;;;;;5012134;28;20431;-83
2023/03/04 11:21:15;;;;;;;66.27;2.17;;;6.20;97.30;;;;;;5012675;28;20468;-78
2023/03/04 11:23:52;;;;;;;1.33;1.00;;;6.20;97.30;;;;;;5009499;28;20565;-83
2023/03/04 11:26:23;;;;;;;4.17;1.93;;;6.20;97.30;;;;;;5012270;28;20426;-79
2023/03/04 11:29:13;;;;;;;1.63;1.17;;;6.20;97.30;;;;;;5010016;28;20444;-84
2023/03/04 11:31:47;;;;;;;1.97;1.73;;;6.10;97.30;;;;;;5009952;28;20431;-79
2023/03/04 11:34:41;;;;;;;0.90;0.80;;;6.00;97.30;;;;;;5000443;28;20467;-84
2023/03/04 11:37:11;;;;;;;1.43;1.33;;;6.00;97.30;;;;;;5005255;28;20450;-82
2023/03/04 11:39:57;;;;;;;4.83;1.90;;;6.00;97.30;;;;;;5012370;28;20478;-83
2023/03/04 11:42:42;;;;;;;2.20;2.10;;;6.00;97.30;;;;;;5016988;28;20431;-83
2023/03/04 11:45:19;;;;;;;1.17;1.07;;;6.10;97.30;;;;;;5016127;28;20434;-83
2023/03/04 11:47:47;;;;;;;1.50;1.40;;;6.10;97.30;;;;;;5003800;28;20444;-84
2023/03/04 11:50:34;;;;;;;1.23;1.13;;;6.10;97.30;;;;;;5017831;28;20426;-80
2023/03/04 11:53:19;;;;;;;1.10;1.03;;;6.20;97.30;;;;;;5010606;28;20436;-82
2023/03/04 11:56:17;;;;;;;1.90;1.80;;;6.30;97.30;;;;;;5037163;28;20418;-83
2023/03/04 11:59:06;;;;;;;1.10;1.00;;;6.30;97.30;;;;;;5011542;28;20419;-80
2023/03/04 12:01:42;;;;;;;1.10;1.00;;;6.30;97.30;;;;;;5017685;28;20903;-84
2023/03/04 12:04:26;;;;;;;1.20;1.10;;;6.40;97.30;;;;;;5024799;28;20466;-81
2023/03/04 12:07:04;;;;;;;1.67;1.00;;;6.40;97.30;;;;;;5013696;28;20412;-84
2023/03/04 12:09:57;;;;;;;1.20;1.10;;;6.50;97.30;;;;;;5013512;28;20568;-81
2023/03/04 12:12:28;;;;;;;1.10;1.00;;;6.60;97.30;;;;;;5018576;28;20482;-83
2023/03/04 12:15:17;;;;;;;1.10;1.00;;;6.70;97.30;;;;;;5016699;28;20427;-83
2023/03/04 12:18:10;;;;;;;1.10;1.10;;;6.80;97.30;;;;;;5013214;28;20502;-78
2023/03/04 12:20:57;;;;;;;1.83;1.73;;;6.90;97.30;;;;;;5022346;28;20513;-82
2023/03/04 12:23:51;;;;;;;1.30;1.20;;;6.90;97.30;;;;;;5021207;28;20488;-82
2023/03/04 12:26:31;;;;;;;2.20;1.20;;;7.00;97.30;;;;;;5022319;28;20451;-83
2023/03/04 12:29:44;;;;;;;4.90;1.60;;;7.00;97.30;;;;;;5019979;28;20412;-82
2023/03/04 12:32:30;;;;;;;1.23;1.13;;;7.10;97.30;;;;;;4976518;28;20463;-80
2023/03/04 12:35:33;;;;;;;1.63;1.40;;;7.10;97.30;;;;;;5014112;28;20468;-84
2023/03/04 12:38:11;;;;;;;2.07;1.93;;;7.10;97.30;;;;;;5021679;28;20419;-83
2023/03/04 12:40:56;;;;;;;1.40;1.30;;;7.10;97.30;;;;;;5017854;28;20484;-81
2023/03/04 12:43:26;;;;;;;1.53;1.43;;;7.00;97.30;;;;;;5009445;28;20453;-82
2023/03/04 12:45:54;;;;;;;5.70;2.07;;;7.00;97.30;;;;;;5018017;28;20419;-83
2023/03/04 12:48:35;;;;;;;2.73;1.73;;;7.00;97.30;;;;;;5035491;28;20868;-80
2023/03/04 12:51:15;;;;;;;1.70;1.60;;;7.10;97.30;;;;;;5021187;28;20446;-82
2023/03/04 12:53:53;;;;;;;2.03;1.90;;;7.10;97.30;;;;;;5019810;28;20901;-79
2023/03/04 12:56:42;;;;;;;1.90;1.40;;;7.10;97.30;;;;;;5036602;28;20415;-84
2023/03/04 12:59:15;;;;;;;1.33;1.33;;;7.10;97.30;;;;;;5014116;28;20443;-82
2023/03/04 13:01:48;;;;;;;3.73;1.90;;;7.20;97.30;;;;;;5023598;28;20423;-82
2023/03/04 13:04:27;;;;;;;6.10;1.27;;;7.20;97.30;;;;;;5026260;28;20494;-85
2023/03/04 13:07:13;;;;;;;1.23;1.23;;;7.40;97.30;;;;;;5020624;28;20505;-82